createdAt,value
2024-05-09T00:00:05.029Z,54.64
2024-05-09T00:02:04.569Z,54.83
2024-05-09T00:05:05.120Z,54.12
2024-05-09T00:08:04.517Z,54.57
2024-05-09T00:10:05.515Z,54.54
2024-05-09T00:12:05.515Z,55.05
2024-05-09T00:15:04.552Z,54.39
2024-05-09T00:18:05.575Z,54.19
2024-05-09T00:21:04.494Z,54.29
2024-05-09T00:24:04.798Z,54.29
2024-05-09T00:27:04.459Z,54.87
2024-05-09T00:29:04.686Z,54.82
2024-05-09T00:31:04.714Z,54.63
2024-05-09T00:34:04.559Z,54.76
2024-05-09T00:36:04.449Z,55.11
2024-05-09T00:38:05.239Z,55.2
2024-05-09T00:41:04.442Z,54.84
2024-05-09T00:43:04.988Z,55.16
2024-05-09T00:46:04.879Z,55.35
2024-05-09T00:48:05.337Z,55.07
2024-05-09T00:51:07.539Z,54.8
2024-05-09T00:54:05.156Z,55.17
2024-05-09T00:57:07.049Z,55.52
2024-05-09T01:00:07.749Z,55.44
2024-05-09T01:02:08.462Z,55.62
2024-05-09T01:04:05.399Z,55.44
2024-05-09T01:07:04.469Z,54.97
2024-05-09T01:10:07.142Z,55.19
2024-05-09T01:12:04.491Z,55.56
2024-05-09T01:14:04.548Z,55.8
2024-05-09T01:17:04.598Z,55.26
2024-05-09T01:19:04.979Z,54.82
2024-05-09T01:21:04.784Z,54.93
2024-05-09T01:23:05.185Z,55.18
2024-05-09T01:26:04.465Z,55.28
2024-05-09T01:28:04.745Z,55.03
2024-05-09T01:30:07.014Z,54.86
2024-05-09T01:33:05.935Z,55.26
2024-05-09T01:36:04.483Z,54.74
2024-05-09T01:38:04.557Z,54.82
2024-05-09T01:40:07.419Z,54.73
2024-05-09T01:43:04.943Z,54.78
2024-05-09T01:46:04.447Z,55.07
2024-05-09T01:49:04.562Z,54.49
2024-05-09T01:51:04.932Z,54.72
2024-05-09T01:53:05.189Z,54.69
2024-05-09T01:56:04.504Z,54.72
2024-05-09T01:58:04.458Z,55.26
2024-05-09T02:00:04.860Z,54.53
2024-05-09T02:03:04.974Z,55.29
2024-05-09T02:06:05.122Z,55.86
2024-05-09T02:09:04.784Z,55.68
2024-05-09T02:12:04.765Z,55.33
2024-05-09T02:15:04.474Z,55.61
2024-05-09T02:18:04.634Z,55.48
2024-05-09T02:20:05.949Z,55.44
2024-05-09T02:23:05.054Z,55.29
2024-05-09T02:25:04.723Z,55.74
2024-05-09T02:28:04.506Z,55.88
2024-05-09T02:31:04.674Z,55.61
2024-05-09T02:34:05.414Z,55.41
2024-05-09T02:37:04.533Z,55.47
2024-05-09T02:39:04.725Z,55.52
2024-05-09T02:42:04.452Z,55.58
2024-05-09T02:44:04.489Z,55.61
2024-05-09T02:47:04.483Z,55.83
2024-05-09T02:49:04.559Z,55.76
2024-05-09T02:52:04.458Z,55.57
2024-05-09T02:54:04.546Z,55.52
2024-05-09T02:57:05.332Z,55.46
2024-05-09T03:00:06.057Z,55.52
2024-05-09T03:02:05.422Z,55.62
2024-05-09T03:05:04.570Z,56.07
2024-05-09T03:08:04.691Z,55.76
2024-05-09T03:11:04.952Z,55.83
2024-05-09T03:14:04.469Z,55.5
2024-05-09T03:17:04.487Z,55.72
2024-05-09T03:19:05.490Z,55.81
2024-05-09T03:22:05.148Z,56.06
2024-05-09T03:24:05.281Z,56.01
2024-05-09T03:27:04.462Z,56.15
2024-05-09T03:29:04.464Z,56.2
2024-05-09T03:32:04.553Z,56.16
2024-05-09T03:34:04.979Z,56.27
2024-05-09T03:37:04.481Z,56.09
2024-05-09T03:39:05.083Z,56
2024-05-09T03:42:04.448Z,55.67
2024-05-09T03:44:04.517Z,55.79
2024-05-09T03:46:05.271Z,55.97
2024-05-09T03:49:04.643Z,55.94
2024-05-09T03:51:05.442Z,56.05
2024-05-09T03:55:04.515Z,56.59
2024-05-09T03:58:04.488Z,56.66
2024-05-09T04:00:05.704Z,56.74
2024-05-09T04:03:04.896Z,56.35
2024-05-09T04:05:04.480Z,56.62
2024-05-09T04:08:04.493Z,56.48
2024-05-09T04:10:05.398Z,56.06
2024-05-09T04:12:04.688Z,56.4
2024-05-09T04:15:04.487Z,55.75
2024-05-09T04:17:05.270Z,55.97
2024-05-09T04:20:06.483Z,56.42
2024-05-09T04:23:04.489Z,56.08
2024-05-09T04:25:04.641Z,56.34
2024-05-09T04:28:04.969Z,57
2024-05-09T04:31:04.492Z,57.04
2024-05-09T04:34:05.386Z,56.67
2024-05-09T04:37:04.541Z,57.01
2024-05-09T04:39:04.497Z,57.03
2024-05-09T04:42:05.235Z,56.7
2024-05-09T04:44:05.332Z,56.6
2024-05-09T04:47:04.558Z,56.68
2024-05-09T04:49:04.508Z,56.95
2024-05-09T04:52:04.506Z,56.97
2024-05-09T04:54:05.561Z,56.94
2024-05-09T04:57:04.508Z,56.8
2024-05-09T04:59:04.926Z,56.89
2024-05-09T05:02:04.670Z,57.04
2024-05-09T05:04:05.702Z,56.86
2024-05-09T05:07:05.167Z,56.78
2024-05-09T05:10:05.735Z,56.79
2024-05-09T05:12:04.725Z,57.02
2024-05-09T05:14:05.332Z,57.14
2024-05-09T05:16:05.270Z,56.74
2024-05-09T05:19:07.344Z,56.82
2024-05-09T05:22:04.533Z,57.18
2024-05-09T05:24:04.451Z,57.11
2024-05-09T05:27:05.282Z,57.28
2024-05-09T05:30:07.409Z,57.37
2024-05-09T05:32:05.311Z,57.17
2024-05-09T05:35:04.632Z,57.23
2024-05-09T05:37:05.252Z,57
2024-05-09T05:40:05.750Z,57.16
2024-05-09T05:43:04.710Z,57.07
2024-05-09T05:46:04.462Z,57.17
2024-05-09T05:48:04.917Z,57.04
2024-05-09T05:50:07.055Z,57.15
2024-05-09T05:52:05.053Z,56.73
2024-05-09T05:55:05.024Z,56.53
2024-05-09T05:58:04.806Z,56.67
2024-05-09T06:01:04.522Z,56.34
2024-05-09T06:04:04.771Z,56.45
2024-05-09T06:07:04.484Z,56.3
2024-05-09T06:09:05.025Z,56.65
2024-05-09T06:12:04.602Z,56.75
2024-05-09T06:14:05.095Z,56.45
2024-05-09T06:17:04.503Z,55.66
2024-05-09T06:19:04.893Z,54.91
2024-05-09T06:22:04.704Z,56.19
2024-05-09T06:25:04.465Z,55.98
2024-05-09T06:27:04.502Z,55.64
2024-05-09T06:30:05.141Z,55.74
2024-05-09T06:32:04.675Z,55.79
2024-05-09T06:35:04.485Z,55.5
2024-05-09T06:37:04.543Z,55.35
2024-05-09T06:39:04.511Z,55.54
2024-05-09T06:41:04.909Z,55.33
2024-05-09T06:43:05.197Z,55.76
2024-05-09T06:46:05.143Z,54.76
2024-05-09T06:49:05.624Z,54.78
2024-05-09T06:52:04.485Z,55.35
2024-05-09T06:54:04.479Z,55.33
2024-05-09T06:57:04.517Z,55.14
2024-05-09T07:00:05.022Z,55.16
2024-05-09T07:02:05.567Z,55.85
2024-05-09T07:05:04.662Z,55.6
2024-05-09T07:07:04.986Z,54.75
2024-05-09T07:09:05.085Z,55.37
2024-05-09T07:11:05.381Z,55.38
2024-05-09T07:14:04.710Z,53.55
2024-05-09T07:16:04.654Z,53.84
2024-05-09T07:19:04.688Z,52.55
2024-05-09T07:21:05.192Z,52.16
2024-05-09T07:24:04.461Z,51.62
2024-05-09T07:26:05.036Z,51.3
2024-05-09T07:29:05.208Z,51.23
2024-05-09T07:32:04.668Z,51.74
2024-05-09T07:35:05.098Z,50.89
2024-05-09T07:38:04.506Z,50.82
2024-05-09T07:40:05.909Z,50.52
2024-05-09T07:43:05.214Z,50.63
2024-05-09T07:45:14.870Z,50.3
2024-05-09T07:51:31.231Z,50.67
2024-05-09T07:53:29.635Z,50.5
2024-05-09T07:56:04.649Z,50.19
2024-05-09T07:59:03.606Z,51.31
2024-05-09T08:01:04.657Z,50.86
2024-05-09T08:03:04.904Z,50.43
2024-05-09T08:06:04.543Z,50.4
2024-05-09T08:08:05.329Z,50.71
2024-05-09T08:11:04.589Z,50.11
2024-05-09T08:13:05.547Z,49.79
2024-05-09T08:16:05.220Z,50.01
2024-05-09T08:18:05.029Z,49.82
2024-05-09T08:21:04.584Z,49.71
2024-05-09T08:24:05.135Z,49.7
2024-05-09T08:26:05.338Z,49.58
2024-05-09T08:29:04.501Z,49.73
2024-05-09T08:31:06.684Z,49.63
2024-05-09T08:34:04.560Z,48.38
2024-05-09T08:36:04.556Z,49.25
2024-05-09T08:39:04.486Z,49.33
2024-05-09T08:42:05.109Z,49.06
2024-05-09T08:45:04.550Z,49.24
2024-05-09T08:47:05.620Z,49.02
2024-05-09T08:50:05.247Z,48.91
2024-05-09T08:53:04.539Z,48.86
2024-05-09T08:55:04.528Z,48.94
2024-05-09T08:58:04.540Z,48.94
2024-05-09T09:00:07.850Z,48.96
2024-05-09T09:03:04.625Z,48.83
2024-05-09T09:05:05.303Z,48.72
2024-05-09T09:08:04.539Z,48.83
2024-05-09T09:11:04.519Z,48.28
2024-05-09T09:14:04.491Z,48.65
2024-05-09T09:16:04.948Z,48.67
2024-05-09T09:19:04.654Z,48.54
2024-05-09T09:21:05.310Z,48.61
2024-05-09T09:24:04.787Z,48.51
2024-05-09T09:26:04.931Z,48.3
2024-05-09T09:29:04.834Z,48.65
2024-05-09T09:32:05.163Z,48.51
2024-05-09T09:35:04.571Z,47.64
2024-05-09T09:37:05.657Z,48.41
2024-05-09T09:40:04.732Z,48.4
2024-05-09T09:42:04.525Z,48.41
2024-05-09T09:45:05.666Z,48.39
2024-05-09T09:47:05.251Z,48
2024-05-09T09:50:07.154Z,47.65
2024-05-09T09:53:04.549Z,48.12
2024-05-09T09:55:04.970Z,46.67
2024-05-09T09:58:06.428Z,47.38
2024-05-09T10:01:04.580Z,46.47
2024-05-09T10:03:04.592Z,47.25
2024-05-09T10:05:05.021Z,47.86
2024-05-09T10:07:05.002Z,47.69
2024-05-09T10:10:06.788Z,46.84
2024-05-09T10:13:04.696Z,45.77
2024-05-09T10:15:04.555Z,45.66
2024-05-09T10:17:05.131Z,45.44
2024-05-09T10:20:09.624Z,46.18
2024-05-09T10:22:05.461Z,45.17
2024-05-09T10:25:05.161Z,46.17
2024-05-09T10:27:05.331Z,45.18
2024-05-09T10:30:06.947Z,46.15
2024-05-09T10:33:04.553Z,46.87
2024-05-09T10:36:04.519Z,45.63
2024-05-09T10:38:05.208Z,47.49
2024-05-09T10:41:04.521Z,44.75
2024-05-09T10:44:04.557Z,43.02
2024-05-09T10:46:04.752Z,43.58
2024-05-09T10:49:07.148Z,45.72
2024-05-09T10:52:04.594Z,42.73
2024-05-09T10:55:05.556Z,44.76
2024-05-09T10:57:05.347Z,43.37
2024-05-09T11:00:06.390Z,44.98
2024-05-09T11:03:05.347Z,47.45
2024-05-09T11:06:04.823Z,44.11
2024-05-09T11:08:04.758Z,43.71
2024-05-09T11:10:07.486Z,45.26
2024-05-09T11:13:04.779Z,43.94
2024-05-09T11:16:05.332Z,43.16
2024-05-09T11:18:05.309Z,42.11
2024-05-09T11:20:10.637Z,42.73
2024-05-09T11:23:04.544Z,41.36
2024-05-09T11:25:05.150Z,44.32
2024-05-09T11:28:04.608Z,43.11
2024-05-09T11:30:05.805Z,44.43
2024-05-09T11:33:04.562Z,41.14
2024-05-09T11:35:05.008Z,42.44
2024-05-09T11:37:05.135Z,42.69
2024-05-09T11:40:07.054Z,45.47
2024-05-09T11:42:05.457Z,43.31
2024-05-09T11:45:04.550Z,44.93
2024-05-09T11:47:04.649Z,42.85
2024-05-09T11:49:05.422Z,43.28
2024-05-09T11:52:04.929Z,43.14
2024-05-09T11:55:05.047Z,43.95
2024-05-09T11:58:04.566Z,42.46
2024-05-09T12:01:04.731Z,42
2024-05-09T12:04:05.127Z,41.48
2024-05-09T12:06:05.018Z,42.86
2024-05-09T12:09:04.585Z,42.27
2024-05-09T12:12:04.568Z,36.62
2024-05-09T12:15:04.564Z,40.61
2024-05-09T12:17:04.596Z,38.99
2024-05-09T12:19:05.483Z,37.67
2024-05-09T12:22:04.740Z,38.77
2024-05-09T12:24:04.536Z,39.34
2024-05-09T12:26:04.598Z,40.55
2024-05-09T12:29:04.547Z,36.99
2024-05-09T12:31:05.406Z,38
2024-05-09T12:34:04.624Z,36.01
2024-05-09T12:36:04.618Z,40.29
2024-05-09T12:39:04.545Z,41.02
2024-05-09T12:42:04.621Z,39.74
2024-05-09T12:45:04.818Z,39.82
2024-05-09T12:48:05.301Z,38.7
2024-05-09T12:50:08.133Z,40.84
2024-05-09T12:53:04.927Z,33.42
2024-05-09T12:55:05.130Z,32.39
2024-05-09T12:58:04.640Z,35.89
2024-05-09T13:00:05.681Z,39.67
2024-05-09T13:02:05.822Z,40.16
2024-05-09T13:05:05.348Z,39.25
2024-05-09T13:08:05.078Z,40.07
2024-05-09T13:10:05.687Z,38.73
2024-05-09T13:13:04.677Z,39.47
2024-05-09T13:15:05.328Z,40.1
2024-05-09T13:18:05.309Z,32.17
2024-05-09T13:21:04.613Z,31.22
2024-05-09T13:23:05.321Z,34.08
2024-05-09T13:26:05.498Z,37.83
2024-05-09T13:29:04.610Z,35.6
2024-05-09T13:31:04.770Z,38.33
2024-05-09T13:34:05.303Z,36.83
2024-05-09T13:37:04.608Z,37.55
2024-05-09T13:39:05.025Z,37.5
2024-05-09T13:42:05.439Z,36.17
2024-05-09T13:45:04.614Z,32.83
2024-05-09T13:48:05.388Z,35.13
2024-05-09T13:51:04.558Z,36.67
2024-05-09T13:53:04.697Z,36.73
2024-05-09T13:55:05.154Z,36.32
2024-05-09T13:57:05.284Z,34.03
2024-05-09T14:00:06.776Z,32.15
2024-05-09T14:03:04.696Z,33.31
2024-05-09T14:05:05.138Z,33.17
2024-05-09T14:08:04.615Z,35.98
2024-05-09T14:10:06.506Z,35.96
2024-05-09T14:13:04.771Z,35.4
2024-05-09T14:16:04.660Z,36.24
2024-05-09T14:19:04.675Z,37.01
2024-05-09T14:22:04.676Z,35.99
2024-05-09T14:24:04.834Z,36.16
2024-05-09T14:27:05.036Z,33.94
2024-05-09T14:29:05.395Z,35.98
2024-05-09T14:32:04.594Z,34.36
2024-05-09T14:34:05.264Z,35.28
2024-05-09T14:37:05.457Z,33.74
2024-05-09T14:40:06.872Z,35.08
2024-05-09T14:43:04.680Z,33.12
2024-05-09T14:46:04.700Z,33.73
2024-05-09T14:49:04.638Z,33.15
2024-05-09T14:51:04.612Z,34.24
2024-05-09T14:53:05.105Z,35.12
2024-05-09T14:56:04.649Z,34.89
2024-05-09T14:59:05.266Z,35.37
2024-05-09T15:02:04.677Z,35.86
2024-05-09T15:04:04.743Z,33.55
2024-05-09T15:06:04.624Z,32.97
2024-05-09T15:08:04.631Z,34.67
2024-05-09T15:11:04.803Z,34.47
2024-05-09T15:14:05.459Z,35.75
2024-05-09T15:17:04.615Z,35.6
2024-05-09T15:23:05.670Z,34.95
2024-05-09T15:26:04.612Z,35.26
2024-05-09T15:29:04.675Z,34.33
2024-05-09T15:31:05.526Z,35.52
2024-05-09T15:34:05.434Z,34.78
2024-05-09T15:38:04.953Z,32.45
2024-05-09T15:40:05.572Z,31.87
2024-05-09T15:42:04.786Z,30.4
2024-05-09T15:44:05.557Z,31.05
2024-05-09T15:47:05.252Z,32.83
2024-05-09T15:53:04.586Z,34.73
2024-05-09T15:55:05.272Z,32.77
2024-05-09T15:58:05.090Z,31.85
2024-05-09T16:01:04.904Z,34.24
2024-05-09T16:03:05.361Z,35.44
2024-05-09T16:05:05.510Z,35.84
2024-05-09T16:08:04.684Z,34.39
2024-05-09T16:12:05.404Z,32.91
2024-05-09T16:15:04.805Z,32.71
2024-05-09T16:18:04.976Z,33.57
2024-05-09T16:21:05.157Z,33.91
2024-05-09T16:23:05.149Z,33.67
2024-05-09T16:26:04.651Z,32.34
2024-05-09T16:28:07.236Z,30.98
2024-05-09T16:31:04.764Z,30.13
2024-05-09T16:33:05.178Z,32.87
2024-05-09T16:36:04.966Z,34.25
2024-05-09T16:39:04.651Z,35.22
2024-05-09T16:41:04.660Z,35.25
2024-05-09T16:44:05.181Z,34.97
2024-05-09T16:47:05.034Z,34.14
2024-05-09T16:49:05.413Z,34.35
2024-05-09T16:52:05.091Z,33.61
2024-05-09T16:55:05.064Z,33.45
2024-05-09T16:57:05.204Z,29.45
2024-05-09T17:00:07.242Z,28.18
2024-05-09T17:02:04.910Z,27.24
2024-05-09T17:05:04.887Z,29.35
2024-05-09T17:07:04.755Z,31.35
2024-05-09T17:09:07.933Z,29.11
2024-05-09T17:12:05.243Z,28.98
2024-05-09T17:15:04.668Z,30.05
2024-05-09T17:18:04.752Z,29.82
2024-05-09T17:20:06.260Z,32.2
2024-05-09T17:23:05.760Z,30.05
2024-05-09T17:26:05.178Z,30.59
2024-05-09T17:28:05.963Z,32.4
2024-05-09T17:31:04.928Z,32.56
2024-05-09T17:33:05.466Z,31.93
2024-05-09T17:36:05.428Z,28.91
2024-05-09T17:39:04.803Z,29.94
2024-05-09T17:41:05.360Z,31.99
2024-05-09T17:44:04.833Z,30.19
2024-05-09T17:47:05.285Z,30.73
2024-05-09T17:50:04.410Z,29.65
2024-05-09T17:52:04.738Z,32.71
2024-05-09T17:54:05.273Z,30.45
2024-05-09T17:56:05.561Z,30.46
2024-05-09T17:59:06.459Z,33.27
2024-05-09T18:01:05.595Z,32.8
2024-05-09T18:04:04.815Z,31.08
2024-05-09T18:06:05.518Z,33.54
2024-05-09T18:09:04.886Z,32.34
2024-05-09T18:11:05.040Z,31.97
2024-05-09T18:14:04.675Z,32.07
2024-05-09T18:17:04.660Z,34.15
2024-05-09T18:19:04.773Z,31.84
2024-05-09T18:21:05.130Z,33.19
2024-05-09T18:24:04.851Z,34.01
2024-05-09T18:27:04.681Z,31.2
2024-05-09T18:29:04.684Z,31.98
2024-05-09T18:32:04.845Z,32.17
2024-05-09T18:35:05.009Z,32.12
2024-05-09T18:38:04.726Z,33.25
2024-05-09T18:41:05.129Z,33.12
2024-05-09T18:44:05.201Z,33.04
2024-05-09T18:47:04.646Z,32.47
2024-05-09T18:49:04.827Z,33.38
2024-05-09T18:52:04.983Z,33.77
2024-05-09T18:54:05.039Z,33.54
2024-05-09T18:57:04.694Z,34.53
2024-05-09T19:00:05.726Z,34.67
2024-05-09T19:03:05.384Z,34.56
2024-05-09T19:05:05.074Z,34.91
2024-05-09T19:08:05.330Z,35.11
2024-05-09T19:11:04.801Z,35.6
2024-05-09T19:13:07.130Z,36.17
2024-05-09T19:15:05.383Z,37.12
2024-05-09T19:18:05.577Z,36.91
2024-05-09T19:21:04.713Z,36.32
2024-05-09T19:23:05.009Z,36.53
2024-05-09T19:26:04.695Z,36.78
2024-05-09T19:29:04.686Z,37.15
2024-05-09T19:31:05.475Z,37.06
2024-05-09T19:34:04.749Z,37.33
2024-05-09T19:36:05.142Z,37.28
2024-05-09T19:38:05.491Z,37.55
2024-05-09T19:41:05.322Z,38.06
2024-05-09T19:44:04.681Z,38.2
2024-05-09T19:46:05.064Z,38.35
2024-05-09T19:48:05.608Z,38.62
2024-05-09T19:51:04.794Z,38.62
2024-05-09T19:53:04.695Z,39.23
2024-05-09T19:55:05.494Z,39.54
2024-05-09T19:58:05.504Z,39.29
2024-05-09T20:01:04.772Z,39.03
2024-05-09T20:03:05.742Z,39.31
2024-05-09T20:06:04.724Z,39.16
2024-05-09T20:08:05.543Z,39.44
2024-05-09T20:11:04.669Z,39.71
2024-05-09T20:14:04.747Z,39.59
2024-05-09T20:17:04.729Z,42.33
2024-05-09T20:19:04.832Z,39.75
2024-05-09T20:22:05.041Z,40.28
2024-05-09T20:25:04.810Z,40.5
2024-05-09T20:27:05.379Z,40.43
2024-05-09T20:30:07.953Z,40.62
2024-05-09T20:32:04.771Z,41.46
2024-05-09T20:34:04.742Z,41.16
2024-05-09T20:36:05.942Z,40.75
2024-05-09T20:39:04.743Z,41.26
2024-05-09T20:41:04.767Z,41.22
2024-05-09T20:43:05.566Z,41.29
2024-05-09T20:45:05.275Z,41.51
2024-05-09T20:48:05.142Z,41.53
2024-05-09T20:50:07.620Z,41.72
2024-05-09T20:53:04.699Z,41.94
2024-05-09T20:55:04.862Z,41.68
2024-05-09T20:58:04.962Z,42.35
2024-05-09T21:01:04.817Z,42.61
2024-05-09T21:03:05.342Z,42.29
2024-05-09T21:06:04.722Z,41.8
2024-05-09T21:08:05.359Z,42.19
2024-05-09T21:11:04.812Z,42.49
2024-05-09T21:13:05.446Z,42.76
2024-05-09T21:16:04.866Z,42.33
2024-05-09T21:19:04.792Z,42.93
2024-05-09T21:21:05.023Z,42.81
2024-05-09T21:24:04.902Z,43.93
2024-05-09T21:26:05.173Z,43
2024-05-09T21:28:05.394Z,43.02
2024-05-09T21:30:07.653Z,43.24
2024-05-09T21:33:05.715Z,44.04
2024-05-09T21:36:04.954Z,43.76
2024-05-09T21:39:05.247Z,44.16
2024-05-09T21:42:05.074Z,43.45
2024-05-09T21:45:04.764Z,43.57
2024-05-09T21:47:05.648Z,43.57
2024-05-09T21:50:06.174Z,44.58
2024-05-09T21:53:05.295Z,44.26
2024-05-09T21:56:04.713Z,44.66
2024-05-09T21:58:05.258Z,45.23
2024-05-09T22:01:04.833Z,44.77
2024-05-09T22:03:05.326Z,44.71
2024-05-09T22:05:05.756Z,44.58
2024-05-09T22:08:05.436Z,44.45
2024-05-09T22:11:04.834Z,44.99
2024-05-09T22:14:04.714Z,44.52
2024-05-09T22:16:04.809Z,44.7
2024-05-09T22:18:05.350Z,44.48
2024-05-09T22:21:04.720Z,45.22
2024-05-09T22:24:05.575Z,46.79
2024-05-09T22:27:04.723Z,45.51
2024-05-09T22:29:05.463Z,45.22
2024-05-09T22:32:04.818Z,45.6
2024-05-09T22:35:04.913Z,45.64
2024-05-09T22:38:04.802Z,45.33
2024-05-09T22:41:04.831Z,45.55
2024-05-09T22:44:05.514Z,46.02
2024-05-09T22:47:04.769Z,45.4
2024-05-09T22:49:04.871Z,45.51
2024-05-09T22:51:04.740Z,46.03
2024-05-09T22:53:04.755Z,46.02
2024-05-09T22:55:04.805Z,46.36
2024-05-09T22:57:05.644Z,45.65
2024-05-09T23:00:05.155Z,46
2024-05-09T23:03:04.791Z,45.69
2024-05-09T23:06:04.714Z,45.52
2024-05-09T23:08:04.747Z,45.93
2024-05-09T23:10:08.403Z,46.43
2024-05-09T23:13:04.817Z,46.46
2024-05-09T23:15:05.481Z,47.32
2024-05-09T23:17:05.666Z,46.04
2024-05-09T23:20:05.353Z,46.43
2024-05-09T23:22:04.760Z,46.81
2024-05-09T23:24:05.060Z,46.52
2024-05-09T23:27:04.752Z,46.65
2024-05-09T23:30:06.117Z,48.06
2024-05-09T23:33:04.808Z,46.05
2024-05-09T23:35:05.309Z,46.67
2024-05-09T23:37:05.474Z,47.1
2024-05-09T23:40:06.976Z,46.43
2024-05-09T23:43:05.637Z,46.81
2024-05-09T23:45:05.635Z,47.02
2024-05-09T23:48:05.290Z,47.14
2024-05-09T23:51:05.538Z,46.99
2024-05-09T23:54:04.733Z,47.62
2024-05-09T23:56:05.130Z,47.38
2024-05-09T23:58:05.414Z,46.66
